Time;durP1;ratioP1;P1;durP2;ratioP2;P2;SDS_P1;SDS_P2;PMS_P1;PMS_P2;Temp;Humidity;BMP_temperature;BMP_pressure;BME280_temperature;BME280_humidity;BME280_pressure;Samples;Min_cycle;Max_cycle;Signal;HPM_P1;HPM_P2
2022/09/20 00:00:43;;;;;;;4.93;2.25;;;;;;;9.13;100.00;99273.50;5028074;28;20035;-70
2022/09/20 00:03:09;;;;;;;7.78;2.53;;;;;;;9.13;100.00;99278.91;5029386;28;20067;-70
2022/09/20 00:05:36;;;;;;;7.20;2.30;;;;;;;9.11;100.00;99270.16;5025748;28;20112;-70
2022/09/20 00:08:03;;;;;;;6.10;2.65;;;;;;;9.08;100.00;99265.97;5024681;28;20022;-70
2022/09/20 00:10:30;;;;;;;8.00;2.58;;;;;;;9.05;100.00;99260.09;5030462;28;20467;-70
2022/09/20 00:12:56;;;;;;;6.13;2.63;;;;;;;8.90;100.00;99244.69;5019040;28;20052;-70
2022/09/20 00:15:21;;;;;;;10.45;2.60;;;;;;;8.89;100.00;99240.31;5028883;28;20029;-70
2022/09/20 00:17:46;;;;;;;5.10;2.25;;;;;;;8.77;100.00;99247.16;5028557;28;20390;-70
2022/09/20 00:20:12;;;;;;;4.22;2.40;;;;;;;8.77;100.00;99258.78;5029407;28;20021;-68
2022/09/20 00:22:37;;;;;;;5.32;2.75;;;;;;;8.77;100.00;99279.53;5027171;28;20067;-69
2022/09/20 00:25:03;;;;;;;4.15;2.78;;;;;;;8.74;100.00;99275.34;5031058;28;20032;-69
2022/09/20 00:27:28;;;;;;;5.78;2.85;;;;;;;8.73;100.00;99273.66;5023963;28;20554;-69
2022/09/20 00:29:53;;;;;;;4.97;2.90;;;;;;;8.73;100.00;99272.84;5034559;28;20036;-69
2022/09/20 00:32:19;;;;;;;8.57;2.95;;;;;;;8.71;100.00;99280.25;5028827;28;20051;-69
2022/09/20 00:37:29;;;;;;;7.82;3.60;;;;;;;8.71;100.00;99283.78;5031993;28;20130;-70
2022/09/20 00:39:54;;;;;;;8.63;3.33;;;;;;;8.68;100.00;99275.22;5030274;28;20077;-69
2022/09/20 00:42:27;;;;;;;7.20;3.08;;;;;;;8.75;100.00;99287.81;5035028;28;20682;-69
2022/09/20 00:44:55;;;;;;;11.90;3.70;;;;;;;8.76;100.00;99291.34;5032351;28;20032;-69
2022/09/20 00:47:41;;;;;;;5.53;3.27;;;;;;;8.77;100.00;99291.16;5023200;28;20018;-69
2022/09/20 00:50:25;;;;;;;7.75;3.92;;;;;;;8.88;100.00;99283.66;5026449;28;20676;-69
2022/09/20 00:52:56;;;;;;;8.68;3.72;;;;;;;8.89;100.00;99282.66;5021714;28;20056;-69
2022/09/20 00:55:21;;;;;;;7.35;3.60;;;;;;;8.75;100.00;99262.69;5030874;28;20037;-69
2022/09/20 00:57:47;;;;;;;11.18;4.22;;;;;;;8.68;100.00;99262.56;5029377;28;20052;-69
2022/09/20 01:00:13;;;;;;;8.02;4.55;;;;;;;8.66;100.00;99266.47;5035792;28;20045;-69
2022/09/20 01:02:44;;;;;;;7.63;3.80;;;;;;;8.74;100.00;99255.63;5031178;28;20487;-68
2022/09/20 01:05:12;;;;;;;8.32;3.88;;;;;;;8.90;100.00;99278.94;5027560;28;20189;-68
2022/09/20 01:07:39;;;;;;;13.20;3.67;;;;;;;8.69;100.00;99255.31;5024772;28;20048;-69
2022/09/20 01:10:05;;;;;;;12.80;4.00;;;;;;;8.87;100.00;99273.91;5031698;28;20021;-69
2022/09/20 01:12:34;;;;;;;10.25;3.83;;;;;;;8.75;100.00;99255.44;5030569;28;20039;-69
2022/09/20 01:15:04;;;;;;;8.65;3.78;;;;;;;8.80;100.00;99259.44;5031373;28;20030;-69
2022/09/20 01:17:33;;;;;;;10.13;3.53;;;;;;;8.94;100.00;99270.31;5020601;28;20464;-69
2022/09/20 01:20:17;;;;;;;7.75;3.53;;;;;;;8.88;100.00;99259.38;5024562;28;20148;-69
2022/09/20 01:23:03;;;;;;;8.50;3.45;;;;;;;8.75;100.00;99262.69;5031048;28;20030;-69
2022/09/20 01:25:50;;;;;;;11.68;4.70;;;;;;;8.70;100.00;99265.94;5032765;28;20024;-68
2022/09/20 01:28:16;;;;;;;8.07;3.53;;;;;;;8.63;100.00;99256.03;5033281;28;20029;-69
2022/09/20 01:30:48;;;;;;;6.05;3.83;;;;;;;8.50;100.00;99235.91;5040078;28;20116;-68
2022/09/20 01:33:32;;;;;;;8.80;3.60;;;;;;;8.65;100.00;99260.25;5017040;28;20463;-69
2022/09/20 01:36:02;;;;;;;6.97;3.80;;;;;;;8.63;100.00;99258.75;5032334;28;20033;-71
2022/09/20 01:38:45;;;;;;;9.20;4.40;;;;;;;8.63;100.00;99272.22;5025155;28;20033;-71
2022/09/20 01:41:25;;;;;;;7.30;4.10;;;;;;;8.61;100.00;99271.56;5024380;28;20160;-71
2022/09/20 01:43:57;;;;;;;7.15;3.72;;;;;;;8.62;100.00;99276.78;5019194;28;20033;-71
2022/09/20 01:46:31;;;;;;;8.93;3.75;;;;;;;8.52;100.00;99277.03;5026301;28;20056;-71
2022/09/20 01:49:15;;;;;;;11.60;3.97;;;;;;;8.53;100.00;99267.91;5036129;28;20032;-71
2022/09/20 01:51:59;;;;;;;10.55;4.15;;;;;;;8.59;100.00;99268.19;5030558;28;20029;-71
2022/09/20 01:54:33;;;;;;;7.20;3.90;;;;;;;8.62;100.00;99260.59;5029696;28;20029;-71
2022/09/20 01:57:17;;;;;;;8.48;3.45;;;;;;;8.58;100.00;99261.13;5031573;28;20025;-71
2022/09/20 02:00:01;;;;;;;11.43;4.28;;;;;;;8.49;100.00;99263.06;5035548;28;20041;-69
2022/09/20 02:03:04;;;;;;;9.35;3.80;;;;;;;8.50;100.00;99262.88;5036004;28;20021;-68
2022/09/20 02:05:48;;;;;;;4.97;3.45;;;;;;;8.55;100.00;99256.94;5034340;28;20108;-69
2022/09/20 02:08:31;;;;;;;9.30;3.33;;;;;;;8.60;100.00;99259.94;5030876;28;20451;-70
2022/09/20 02:11:08;;;;;;;11.60;3.42;;;;;;;8.52;100.00;99252.75;5035789;28;20032;-70
2022/09/20 02:13:39;;;;;;;8.43;3.40;;;;;;;8.50;100.00;99251.25;5034120;28;20029;-71
2022/09/20 02:16:32;;;;;;;7.22;3.63;;;;;;;8.41;100.00;99253.16;5018409;22;20057;-67
2022/09/20 02:19:17;;;;;;;11.02;3.80;;;;;;;8.33;100.00;99259.41;4992865;28;20073;-67
2022/09/20 02:22:10;;;;;;;12.32;3.30;;;;;;;8.30;100.00;99253.53;4987641;28;20030;-67
2022/09/20 02:25:03;;;;;;;9.85;3.22;;;;;;;8.24;100.00;99254.25;4988474;28;20072;-65
2022/09/20 02:27:46;;;;;;;9.35;3.33;;;;;;;8.23;100.00;99266.06;4989802;28;20488;-66
2022/09/20 02:30:39;;;;;;;14.10;3.00;;;;;;;8.20;100.00;99263.69;4989169;28;20049;-68
2022/09/20 02:33:21;;;;;;;8.10;3.28;;;;;;;8.25;100.00;99253.22;4987469;28;20022;-67
2022/09/20 02:36:11;;;;;;;10.32;3.70;;;;;;;8.22;100.00;99259.78;4986880;28;20076;-68
2022/09/20 02:38:56;;;;;;;11.20;3.67;;;;;;;8.19;100.00;99262.84;4994506;28;20096;-65
2022/09/20 02:41:36;;;;;;;7.72;3.40;;;;;;;8.27;100.00;99267.34;4989521;28;20105;-68
2022/09/20 02:44:25;;;;;;;9.32;3.78;;;;;;;8.28;100.00;99259.09;4989142;28;20022;-67
2022/09/20 02:47:01;;;;;;;;;;;;;;;8.48;100.00;99253.28;4992138;28;20475;-68
2022/09/20 02:50:05;;;;;;;5.55;2.97;;;;;;;8.39;100.00;99255.19;4993550;28;20012;-67
2022/09/20 02:53:09;;;;;;;9.20;3.20;;;;;;;8.35;100.00;99260.06;4987663;28;20018;-65
2022/09/20 02:55:58;;;;;;;11.13;4.03;;;;;;;8.33;100.00;99245.06;4988865;28;20439;-66
2022/09/20 02:58:35;;;;;;;9.02;3.13;;;;;;;8.32;100.00;99259.56;4988426;28;20038;-68
2022/09/20 03:01:16;;;;;;;5.40;2.92;;;;;;;8.31;100.00;99272.22;5006047;28;20041;-66
2022/09/20 03:04:22;;;;;;;8.27;3.55;;;;;;;8.29;100.00;99268.03;5009576;28;20141;-65
2022/09/20 03:07:01;;;;;;;4.60;2.75;;;;;;;8.36;100.00;99266.31;5007252;28;20026;-67
2022/09/20 03:09:32;;;;;;;6.25;3.15;;;;;;;8.28;100.00;99261.81;5009326;28;20025;-66
2022/09/20 03:12:20;;;;;;;6.68;3.38;;;;;;;8.24;100.00;99265.84;5011479;28;20038;-68
2022/09/20 03:15:03;;;;;;;10.03;3.03;;;;;;;8.23;100.00;99272.28;4995305;28;20536;-68
2022/09/20 03:17:59;;;;;;;7.90;3.42;;;;;;;8.20;100.00;99263.69;4994197;28;20535;-66
2022/09/20 03:20:56;;;;;;;3.83;2.35;;;;;;;8.42;100.00;99270.19;4986580;28;20030;-67
2022/09/20 03:23:45;;;;;;;6.90;2.75;;;;;;;8.52;100.00;99260.00;4993833;28;20061;-67
2022/09/20 03:26:30;;;;;;;9.77;2.90;;;;;;;8.47;100.00;99260.53;4998606;28;20368;-66
2022/09/20 03:28:59;;;;;;;6.75;2.45;;;;;;;8.46;100.00;99260.69;4997893;28;20041;-68
2022/09/20 03:31:47;;;;;;;10.73;3.10;;;;;;;8.45;100.00;99264.44;4990436;28;20499;-66
2022/09/20 03:34:15;;;;;;;5.50;2.37;;;;;;;8.62;100.00;99265.13;4983776;28;20046;-67
2022/09/20 03:36:46;;;;;;;4.80;2.80;;;;;;;8.59;100.00;99268.19;4988790;28;20058;-67
2022/09/20 03:39:35;;;;;;;6.85;2.70;;;;;;;8.62;100.00;99266.00;4990275;28;20524;-66
2022/09/20 03:42:18;;;;;;;5.93;2.78;;;;;;;8.67;100.00;99276.22;4980755;28;20026;-67
2022/09/20 03:45:02;;;;;;;6.95;2.72;;;;;;;8.71;100.00;99272.16;4983506;28;20050;-66
2022/09/20 03:47:47;;;;;;;7.32;2.50;;;;;;;8.69;100.00;99260.72;4989753;28;20026;-66
2022/09/20 03:50:22;;;;;;;6.80;3.00;;;;;;;8.78;100.00;99256.94;4984904;28;20110;-67
2022/09/20 03:53:05;;;;;;;6.00;2.78;;;;;;;8.69;100.00;99258.84;4986780;28;20503;-63
2022/09/20 03:55:44;;;;;;;6.03;3.30;;;;;;;8.49;100.00;99255.81;4991460;28;20049;-68
2022/09/20 03:58:23;;;;;;;7.50;2.85;;;;;;;8.41;100.00;99252.31;4995107;28;20380;-73
2022/09/20 04:01:08;;;;;;;4.07;2.63;;;;;;;8.42;100.00;99262.09;4989294;28;20057;-68
2022/09/20 04:03:44;;;;;;;9.57;3.00;;;;;;;8.38;100.00;99264.25;4988914;28;20034;-68
2022/09/20 04:06:48;;;;;;;8.00;3.33;;;;;;;8.35;100.00;99253.81;4980459;28;20102;-68
2022/09/20 04:09:39;;;;;;;8.73;3.80;;;;;;;8.27;100.00;99268.19;4989141;28;20034;-70
2022/09/20 04:12:14;;;;;;;6.38;3.53;;;;;;;8.30;100.00;99275.09;4994963;28;20108;-68
2022/09/20 04:15:14;;;;;;;6.82;3.10;;;;;;;8.33;100.00;99286.38;4989328;28;20034;-68
2022/09/20 04:18:18;;;;;;;8.18;3.03;;;;;;;8.21;100.00;99282.38;4986405;28;20165;-67
2022/09/20 04:20:59;;;;;;;9.25;3.38;;;;;;;8.17;100.00;99291.81;4986634;28;20044;-67
2022/09/20 04:23:40;;;;;;;7.55;2.90;;;;;;;8.18;100.00;99295.38;4984717;28;20018;-71
2022/09/20 04:26:05;;;;;;;7.03;2.90;;;;;;;8.07;100.00;99292.06;4986391;28;20113;-76
2022/09/20 04:28:42;;;;;;;6.45;3.20;;;;;;;7.99;100.00;99281.31;4990167;28;20097;-74
2022/09/20 04:31:35;;;;;;;11.23;3.35;;;;;;;7.98;100.00;99290.41;4990515;28;20018;-76
2022/09/20 04:34:05;;;;;;;8.65;3.67;;;;;;;7.91;100.00;99286.72;4988688;28;20491;-73
2022/09/20 04:36:54;;;;;;;9.18;3.67;;;;;;;7.84;100.00;99294.66;4990461;28;20361;-73
2022/09/20 04:39:41;;;;;;;7.28;2.70;;;;;;;7.66;100.00;99281.44;4982383;28;20181;-73
2022/09/20 04:42:35;;;;;;;6.72;3.25;;;;;;;7.64;100.00;99296.91;4989095;28;20031;-73
2022/09/20 04:45:29;;;;;;;6.95;2.97;;;;;;;7.61;100.00;99296.44;4991477;28;20026;-74
2022/09/20 04:48:23;;;;;;;9.70;3.13;;;;;;;7.56;100.00;99301.47;4988703;28;20019;-76
2022/09/20 04:51:28;;;;;;;5.35;3.30;;;;;;;7.47;100.00;99298.81;4969473;28;20049;-75
2022/09/20 04:54:18;;;;;;;7.28;3.65;;;;;;;7.41;100.00;99315.66;4991688;28;20137;-73
2022/09/20 04:56:43;;;;;;;7.65;3.67;;;;;;;7.39;100.00;99314.97;4987019;28;20034;-72
2022/09/20 04:59:28;;;;;;;9.23;3.88;;;;;;;7.31;100.00;99317.69;4988743;28;20034;-72
2022/09/20 05:02:27;;;;;;;7.60;3.65;;;;;;;7.35;100.00;99332.47;4993788;28;20044;-76
2022/09/20 05:05:27;;;;;;;7.32;3.10;;;;;;;7.38;100.00;99336.69;4992390;28;20021;-76
2022/09/20 05:08:13;;;;;;;9.68;3.28;;;;;;;7.32;100.00;99327.44;4989064;28;20155;-73
2022/09/20 05:11:08;;;;;;;8.05;3.97;;;;;;;7.58;100.00;99340.69;4987147;28;20023;-73
2022/09/20 05:13:42;;;;;;;7.22;3.53;;;;;;;7.61;100.00;99326.88;4977222;28;20798;-72
2022/09/20 05:16:45;;;;;;;9.10;3.78;;;;;;;7.70;100.00;99335.78;4988638;28;20117;-73
2022/09/20 05:19:54;;;;;;;7.03;2.95;;;;;;;7.60;100.00;99337.84;4986034;28;20181;-70
2022/09/20 05:22:38;;;;;;;;;;;;;;;7.64;100.00;99341.84;4965528;28;20034;-71
2022/09/20 05:25:22;;;;;;;7.45;2.88;;;;;;;7.63;100.00;99335.63;4986785;28;20391;-71
2022/09/20 05:28:02;;;;;;;6.38;3.53;;;;;;;7.65;100.00;99338.13;4985910;28;20100;-75
2022/09/20 05:30:45;;;;;;;7.75;2.88;;;;;;;7.71;100.00;99350.94;4987702;28;20026;-74
2022/09/20 05:33:35;;;;;;;10.02;3.33;;;;;;;7.79;100.00;99347.38;4985529;28;20362;-67
2022/09/20 05:36:09;;;;;;;6.97;2.85;;;;;;;7.91;100.00;99348.69;5007471;28;20500;-67
2022/09/20 05:38:41;;;;;;;10.45;3.20;;;;;;;8.25;100.00;99351.13;4993601;28;20042;-73
2022/09/20 05:41:17;;;;;;;6.65;2.83;;;;;;;9.22;100.00;99337.19;4992744;28;20504;-72
2022/09/20 05:44:07;;;;;;;7.25;2.22;;;;;;;9.96;100.00;99304.91;4989881;28;20038;-69
2022/09/20 05:46:35;;;;;;;5.88;2.65;;;;;;;10.49;100.00;99310.16;4995712;28;20093;-67
2022/09/20 05:49:14;;;;;;;12.50;2.50;;;;;;;10.88;100.00;99303.53;4986862;28;20030;-68
2022/09/20 05:51:45;;;;;;;7.65;2.40;;;;;;;10.46;100.00;99299.75;4994934;28;20030;-67
2022/09/20 05:54:28;;;;;;;6.13;2.30;;;;;;;9.91;100.00;99309.19;4988757;28;20041;-68
2022/09/20 05:57:09;;;;;;;6.53;2.20;;;;;;;9.75;100.00;99315.63;4987554;28;20030;-68
2022/09/20 06:00:09;;;;;;;6.45;2.53;;;;;;;11.06;100.00;99297.66;4988185;28;20038;-67
2022/09/20 06:02:58;;;;;;;4.60;1.92;;;;;;;13.25;100.00;99314.19;4992386;28;20030;-70
2022/09/20 06:05:54;;;;;;;5.95;2.08;;;;;;;14.58;90.16;99308.53;4991686;28;20031;-70
2022/09/20 06:08:50;;;;;;;5.80;1.90;;;;;;;15.18;81.05;99303.53;4986329;28;20034;-70
2022/09/20 06:11:22;;;;;;;5.97;2.00;;;;;;;14.38;83.29;99305.84;4989771;28;20021;-67
2022/09/20 06:14:18;;;;;;;4.90;1.50;;;;;;;12.85;96.87;99325.81;5000380;28;20061;-67
2022/09/20 06:17:05;;;;;;;7.95;1.85;;;;;;;11.78;100.00;99320.91;4990646;28;20061;-67
2022/09/20 06:19:41;;;;;;;3.92;2.53;;;;;;;11.04;100.00;99311.38;4992796;28;20407;-65
2022/09/20 06:22:16;;;;;;;12.88;3.10;;;;;;;10.74;100.00;99321.47;4993206;28;20037;-68
2022/09/20 06:24:53;;;;;;;5.45;2.80;;;;;;;10.36;100.00;99323.53;4985102;28;20034;-68
2022/09/20 06:27:42;;;;;;;4.82;2.65;;;;;;;10.10;100.00;99322.13;4985275;28;20435;-65
2022/09/20 06:30:15;;;;;;;5.47;2.78;;;;;;;10.42;100.00;99325.47;4991568;28;20664;-65
2022/09/20 06:32:58;;;;;;;7.05;3.25;;;;;;;11.30;100.00;99331.63;4987974;28;20037;-72
2022/09/20 06:35:30;;;;;;;7.85;2.88;;;;;;;11.60;100.00;99319.53;4987291;28;20146;-72
2022/09/20 06:43:41;;;;;;;4.63;2.70;;;;;;;11.47;100.00;99327.56;4996788;28;20159;-71
2022/09/20 06:46:07;;;;;;;7.45;2.92;;;;;;;11.90;100.00;99335.63;4993058;28;20046;-70
2022/09/20 06:48:32;;;;;;;10.15;2.97;;;;;;;11.54;100.00;99333.88;4996599;28;20080;-70
2022/09/20 06:51:00;;;;;;;6.68;3.13;;;;;;;11.33;100.00;99336.63;4994476;28;20054;-71
2022/09/20 06:53:29;;;;;;;7.18;2.92;;;;;;;11.61;100.00;99340.22;4990645;28;20030;-69
2022/09/20 06:55:56;;;;;;;7.00;3.17;;;;;;;11.75;100.00;99348.44;4987987;28;20033;-67
2022/09/20 06:58:21;;;;;;;11.20;2.88;;;;;;;11.40;100.00;99343.78;4991759;28;20053;-69
2022/09/20 07:00:47;;;;;;;5.55;2.42;;;;;;;11.61;100.00;99332.06;4993740;28;20037;-68
2022/09/20 07:03:12;;;;;;;5.18;1.58;;;;;;;11.90;100.00;99343.78;4990529;28;20886;-68
2022/09/20 07:05:38;;;;;;;5.80;1.98;;;;;;;12.19;100.00;99337.25;4986346;28;20026;-68
2022/09/20 07:08:03;;;;;;;4.50;2.10;;;;;;;12.48;100.00;99330.72;4982786;28;20041;-70
2022/09/20 07:10:29;;;;;;;5.63;1.85;;;;;;;14.34;94.96;99329.94;4993275;28;20468;-71
2022/09/20 07:12:59;;;;;;;5.78;1.67;;;;;;;17.21;74.72;99331.78;4994701;28;20037;-70
2022/09/20 07:15:28;;;;;;;5.93;1.80;;;;;;;18.97;63.66;99338.25;4991123;28;20034;-70
2022/09/20 07:17:54;;;;;;;7.90;1.73;;;;;;;19.65;61.61;99334.53;4991374;28;20026;-70
2022/09/20 07:20:20;;;;;;;4.53;1.40;;;;;;;20.76;56.17;99333.63;4991687;28;20113;-72
2022/09/20 07:22:46;;;;;;;8.57;1.70;;;;;;;21.69;51.43;99327.13;4989768;28;20093;-72
2022/09/20 07:25:11;;;;;;;5.05;2.00;;;;;;;22.62;48.53;99334.06;4992391;28;20042;-70
2022/09/20 07:27:37;;;;;;;6.93;1.90;;;;;;;22.52;48.16;99335.69;4988933;28;20116;-70
2022/09/20 07:30:03;;;;;;;5.70;1.90;;;;;;;19.32;55.20;99338.06;4986542;28;20030;-73
2022/09/20 07:32:29;;;;;;;6.13;2.47;;;;;;;17.93;60.32;99353.56;4992659;28;20181;-74
2022/09/20 07:34:54;;;;;;;7.35;2.38;;;;;;;16.64;64.23;99353.97;4989925;28;20018;-72
2022/09/20 07:37:20;;;;;;;5.25;2.25;;;;;;;15.99;70.83;99346.28;4988365;28;20023;-72
2022/09/20 07:39:45;;;;;;;6.75;2.85;;;;;;;17.88;64.86;99339.75;4993770;28;20030;-74
2022/09/20 07:42:11;;;;;;;7.40;2.10;;;;;;;18.06;64.37;99347.00;4991956;28;20026;-72
2022/09/20 07:44:39;;;;;;;7.43;3.03;;;;;;;17.31;65.47;99355.81;4991741;28;20143;-74
2022/09/20 07:47:05;;;;;;;8.32;2.70;;;;;;;16.37;68.31;99356.19;4991421;28;20043;-70
2022/09/20 07:49:30;;;;;;;7.15;2.35;;;;;;;16.44;70.30;99351.47;4989380;28;20424;-69
2022/09/20 07:51:56;;;;;;;4.97;2.13;;;;;;;16.06;69.05;99353.56;4989652;28;20030;-70
2022/09/20 07:54:22;;;;;;;6.53;1.88;;;;;;;16.37;71.70;99356.19;4991125;28;20033;-70
2022/09/20 07:56:47;;;;;;;8.27;2.00;;;;;;;20.23;57.73;99348.06;4993916;28;20462;-70
2022/09/20 07:59:13;;;;;;;4.95;1.42;;;;;;;22.18;50.93;99345.38;4989863;28;20034;-70
2022/09/20 08:01:39;;;;;;;3.60;1.40;;;;;;;23.97;46.68;99346.75;4994145;28;20041;-69
2022/09/20 08:04:05;;;;;;;5.55;1.88;;;;;;;22.77;46.75;99342.41;4986348;28;20550;-70
2022/09/20 08:06:31;;;;;;;13.75;2.28;;;;;;;20.55;51.93;99356.47;4989642;28;20088;-70
2022/09/20 08:08:56;;;;;;;11.90;2.03;;;;;;;22.14;49.23;99358.03;4994234;28;20038;-70
2022/09/20 08:11:28;;;;;;;27.65;3.75;;;;;;;23.34;43.90;99343.38;5001195;28;20022;-72
2022/09/20 08:13:55;;;;;;;37.28;4.03;;;;;;;25.53;41.63;99355.81;4994606;28;20100;-71
2022/09/20 08:16:21;;;;;;;6.85;1.75;;;;;;;25.21;42.19;99364.63;5048168;22;20480;-57
2022/09/20 08:18:48;;;;;;;5.53;1.50;;;;;;;26.06;40.09;99357.88;5026099;28;20033;-57
2022/09/20 08:21:14;;;;;;;4.93;1.63;;;;;;;27.35;37.93;99365.53;5041651;28;20029;-58
2022/09/20 08:23:45;;;;;;;4.95;1.52;;;;;;;27.72;36.15;99362.75;5036251;28;20032;-58
2022/09/20 08:26:13;;;;;;;4.50;1.52;;;;;;;26.23;39.19;99366.59;5028644;28;20116;-57
2022/09/20 08:28:40;;;;;;;8.75;1.80;;;;;;;23.71;41.97;99370.78;5025983;28;20051;-58
2022/09/20 08:31:11;;;;;;;6.45;1.50;;;;;;;21.17;48.35;99371.78;5023305;28;20471;-58
2022/09/20 08:33:39;;;;;;;7.40;1.63;;;;;;;21.20;48.18;99374.03;5044395;28;20025;-57
2022/09/20 08:36:08;;;;;;;6.00;1.73;;;;;;;20.94;48.74;99375.66;5027301;28;20029;-57
2022/09/20 08:38:35;;;;;;;5.80;1.23;;;;;;;19.76;51.41;99362.19;5041023;28;20034;-57
2022/09/20 08:41:21;;;;;;;8.60;1.58;;;;;;;18.89;53.59;99371.53;5027916;28;20157;-57
2022/09/20 08:43:56;;;;;;;6.30;1.40;;;;;;;21.45;49.45;99368.78;5027932;28;20017;-57
2022/09/20 08:46:27;;;;;;;5.03;1.40;;;;;;;21.79;46.92;99365.78;5025403;28;20026;-58
2022/09/20 08:48:53;;;;;;;6.95;2.05;;;;;;;21.17;46.32;99369.03;5042125;28;20029;-57
2022/09/20 08:51:20;;;;;;;9.52;1.80;;;;;;;19.95;50.68;99370.97;5040199;28;20124;-58
2022/09/20 08:53:50;;;;;;;5.75;1.63;;;;;;;20.56;50.21;99366.38;5025476;28;20041;-58
2022/09/20 08:56:16;;;;;;;4.63;1.30;;;;;;;20.63;48.84;99369.78;5026387;28;20022;-57
2022/09/20 08:58:42;;;;;;;6.30;1.60;;;;;;;19.74;50.42;99362.41;5029061;28;20045;-58
2022/09/20 09:01:20;;;;;;;4.93;1.20;;;;;;;20.28;48.05;99356.38;5045551;28;20036;-58
2022/09/20 09:03:46;;;;;;;3.22;1.50;;;;;;;22.47;44.57;99354.13;5022709;28;20126;-59
2022/09/20 09:06:16;;;;;;;3.63;0.95;;;;;;;21.89;45.04;99351.25;5028009;28;20122;-57
2022/09/20 09:08:43;;;;;;;3.70;1.00;;;;;;;20.53;46.77;99353.13;5047640;28;20060;-57
2022/09/20 09:11:15;;;;;;;6.20;1.10;;;;;;;19.33;48.83;99367.16;5048951;28;20018;-57
2022/09/20 09:13:47;;;;;;;7.82;1.00;;;;;;;17.90;52.45;99361.41;5045320;28;20029;-57
2022/09/20 09:16:18;;;;;;;16.88;1.75;;;;;;;17.81;53.74;99366.41;5047412;28;20060;-57
2022/09/20 09:18:45;;;;;;;5.70;1.38;;;;;;;20.97;48.54;99361.38;5047048;28;20120;-58
2022/09/20 09:21:20;;;;;;;4.53;0.90;;;;;;;23.77;42.41;99352.31;5045927;28;20044;-58
2022/09/20 09:24:02;;;;;;;4.15;0.90;;;;;;;25.65;38.26;99349.06;5032003;28;20396;-58
2022/09/20 09:26:35;;;;;;;6.47;1.30;;;;;;;23.75;39.51;99352.56;5031096;28;20465;-58
2022/09/20 09:29:26;;;;;;;6.28;1.38;;;;;;;20.87;45.16;99353.00;5052987;28;20029;-58
2022/09/20 09:31:55;;;;;;;8.32;2.33;;;;;;;19.25;47.71;99351.94;5039840;28;20049;-57
2022/09/20 09:34:29;;;;;;;8.65;1.60;;;;;;;18.09;50.57;99368.44;5025197;28;20091;-56
2022/09/20 09:36:55;;;;;;;4.80;0.93;;;;;;;17.03;53.05;99360.00;5049610;28;20018;-55
2022/09/20 09:39:24;;;;;;;3.75;1.17;;;;;;;16.63;54.82;99360.47;5050761;28;20125;-56
2022/09/20 09:41:49;;;;;;;7.83;1.50;;;;;;;16.33;56.02;99354.16;5041928;28;20480;-55
2022/09/20 09:44:22;;;;;;;3.90;1.60;;;;;;;16.27;57.31;99355.91;5040021;28;20370;-56
2022/09/20 09:46:49;;;;;;;6.55;1.45;;;;;;;16.77;56.19;99355.75;5025341;28;20044;-55
2022/09/20 09:49:34;;;;;;;3.80;1.00;;;;;;;20.20;49.13;99356.78;5027872;28;20115;-57
2022/09/20 09:52:14;;;;;;;5.22;1.50;;;;;;;22.91;42.99;99346.31;5050468;28;20036;-58
2022/09/20 09:54:49;;;;;;;14.38;2.47;;;;;;;25.76;39.65;99343.16;5029049;28;20066;-58
2022/09/20 09:57:42;;;;;;;6.72;0.98;;;;;;;24.89;37.73;99334.59;5025418;28;20049;-57
2022/09/20 10:00:12;;;;;;;7.93;1.75;;;;;;;21.56;41.38;99352.34;5024501;28;20052;-56
2022/09/20 10:02:55;;;;;;;6.75;1.10;;;;;;;19.91;45.47;99351.41;5037182;28;20404;-56
2022/09/20 10:05:38;;;;;;;8.50;1.70;;;;;;;18.60;49.41;99344.91;5047254;28;20025;-56
2022/09/20 10:08:28;;;;;;;8.98;1.63;;;;;;;17.47;51.71;99354.31;5042935;28;20033;-56
2022/09/20 10:11:30;;;;;;;6.47;1.13;;;;;;;17.06;53.28;99359.53;5029619;28;20064;-57
2022/09/20 10:14:06;;;;;;;5.55;0.93;;;;;;;16.91;55.21;99356.38;5043256;28;20377;-56
2022/09/20 10:16:59;;;;;;;6.78;1.20;;;;;;;17.42;53.58;99346.81;5041769;28;20392;-57
2022/09/20 10:19:58;;;;;;;6.97;1.05;;;;;;;17.70;52.98;99351.59;5042374;28;20493;-56
2022/09/20 10:22:45;;;;;;;10.60;1.05;;;;;;;17.79;50.80;99345.78;5043164;28;20033;-56
2022/09/20 10:25:40;;;;;;;9.55;0.93;;;;;;;17.43;51.79;99344.91;5034183;28;20048;-56
2022/09/20 10:28:29;;;;;;;4.53;1.05;;;;;;;17.16;53.52;99341.72;5039984;28;20079;-56
2022/09/20 10:31:07;;;;;;;6.30;1.17;;;;;;;17.53;53.20;99342.44;5040739;28;20036;-56
2022/09/20 10:34:09;;;;;;;6.82;1.20;;;;;;;17.80;52.34;99342.00;5041265;28;20546;-56
2022/09/20 10:37:01;;;;;;;6.97;0.80;;;;;;;18.29;50.48;99337.13;5027474;28;20492;-57
2022/09/20 10:39:35;;;;;;;8.15;1.08;;;;;;;18.58;49.38;99333.34;5016966;28;20049;-56
2022/09/20 10:45:18;;;;;;;8.32;2.40;;;;;;;20.55;46.31;99329.81;5022633;28;20087;-58
2022/09/20 10:48:06;;;;;;;9.05;1.02;;;;;;;23.03;41.95;99325.94;5041148;28;20152;-58
2022/09/20 10:50:37;;;;;;;4.47;0.80;;;;;;;24.48;38.98;99323.72;5023744;28;20056;-58
2022/09/20 10:53:40;;;;;;;6.07;0.90;;;;;;;26.02;35.74;99331.88;5026933;28;20473;-58
2022/09/20 10:56:32;;;;;;;3.97;1.00;;;;;;;26.04;35.03;99323.25;5041099;28;20025;-57
2022/09/20 10:59:25;;;;;;;5.47;0.85;;;;;;;25.39;34.69;99329.91;5027379;28;20029;-57
2022/09/20 11:01:54;;;;;;;3.42;1.10;;;;;;;22.70;36.64;99325.28;5024941;28;20036;-56
2022/09/20 11:04:38;;;;;;;3.92;0.80;;;;;;;22.33;39.04;99331.72;5044815;28;20028;-55
2022/09/20 11:07:25;;;;;;;3.03;0.93;;;;;;;21.55;41.22;99320.41;5033649;28;20030;-55
2022/09/20 11:09:58;;;;;;;3.78;0.90;;;;;;;21.46;42.10;99333.84;5041527;28;20029;-55
2022/09/20 11:13:04;;;;;;;1.80;0.93;;;;;;;20.95;42.46;99327.78;5045493;28;20029;-55
2022/09/20 11:15:38;;;;;;;3.60;0.90;;;;;;;19.65;44.08;99322.72;5041335;28;20480;-55
2022/09/20 11:18:13;;;;;;;3.95;0.90;;;;;;;19.31;44.86;99322.69;5021148;28;20521;-57
2022/09/20 11:20:47;;;;;;;4.13;0.98;;;;;;;18.57;44.34;99320.69;5019402;28;20030;-57
2022/09/20 11:23:24;;;;;;;4.15;0.93;;;;;;;19.49;45.29;99324.34;5029748;28;20071;-57
2022/09/20 11:25:54;;;;;;;3.72;1.00;;;;;;;19.34;45.98;99327.69;5048707;28;20366;-56
2022/09/20 11:28:23;;;;;;;5.20;0.80;;;;;;;18.95;47.29;99335.75;5024525;28;20487;-57
2022/09/20 11:31:44;;;;;;;4.00;1.05;;;;;;;18.50;47.81;99343.88;5033031;28;20141;-57
2022/09/20 11:34:36;;;;;;;7.35;1.40;;;;;;;18.30;48.94;99338.78;4980204;28;20133;-57
2022/09/20 11:37:02;;;;;;;5.90;1.00;;;;;;;17.87;49.83;99334.53;5015549;28;20037;-57
2022/09/20 11:39:39;;;;;;;3.25;0.90;;;;;;;17.98;48.67;99332.84;5032066;28;20041;-57
2022/09/20 11:42:10;;;;;;;4.05;0.80;;;;;;;19.56;46.75;99321.44;5040581;28;20072;-58
2022/09/20 11:44:40;;;;;;;8.32;1.10;;;;;;;21.88;41.30;99325.63;5035278;28;20059;-58
2022/09/20 11:47:13;;;;;;;5.70;0.98;;;;;;;23.39;39.08;99326.81;5021231;28;20542;-57
2022/09/20 11:49:38;;;;;;;3.75;0.90;;;;;;;24.23;37.19;99321.81;5042314;28;20470;-58
2022/09/20 11:52:09;;;;;;;6.78;0.85;;;;;;;24.79;36.84;99321.66;5040872;28;20036;-58
2022/09/20 11:54:53;;;;;;;3.83;0.90;;;;;;;25.50;36.08;99328.69;5019122;28;20037;-58
2022/09/20 11:57:19;;;;;;;3.90;0.80;;;;;;;25.09;35.62;99319.81;5042079;28;20026;-58
2022/09/20 11:59:56;;;;;;;2.72;0.68;;;;;;;23.84;35.49;99316.91;5040142;28;20031;-59
2022/09/20 12:02:39;;;;;;;6.75;1.23;;;;;;;25.89;33.51;99308.44;5026425;28;20368;-58
2022/09/20 12:05:05;;;;;;;4.68;0.73;;;;;;;23.53;35.23;99316.09;5040518;28;20041;-57
2022/09/20 12:07:38;;;;;;;2.53;0.77;;;;;;;22.42;37.98;99321.84;5047669;28;20041;-57
2022/09/20 12:10:22;;;;;;;3.97;0.93;;;;;;;20.56;40.50;99319.66;5046192;28;20156;-57
2022/09/20 12:12:54;;;;;;;11.77;1.23;;;;;;;19.59;43.46;99318.19;5043169;28;20357;-56
2022/09/20 12:15:28;;;;;;;7.00;1.67;;;;;;;18.94;46.87;99320.38;5025777;28;20116;-56
2022/09/20 12:17:56;;;;;;;8.15;1.42;;;;;;;18.00;49.19;99328.81;5046340;28;20022;-57
2022/09/20 12:20:37;;;;;;;4.22;1.30;;;;;;;17.14;52.03;99333.78;5001084;28;20130;-55
2022/09/20 12:23:37;;;;;;;5.55;1.00;;;;;;;16.62;52.83;99330.69;5023624;28;20051;-56
2022/09/20 12:26:09;;;;;;;2.72;0.85;;;;;;;16.39;53.54;99345.03;5030881;28;20140;-56
2022/09/20 12:28:40;;;;;;;3.13;1.10;;;;;;;16.27;54.30;99344.97;5024247;28;20025;-56
2022/09/20 12:31:18;;;;;;;7.18;1.83;;;;;;;16.41;55.52;99329.25;5044233;28;20025;-56